Time;durP1;ratioP1;P1;durP2;ratioP2;P2;SDS_P1;SDS_P2;PMS_P1;PMS_P2;Temp;Humidity;BMP_temperature;BMP_pressure;BME280_temperature;BME280_humidity;BME280_pressure;Samples;Min_cycle;Max_cycle;Signal;HPM_P1;HPM_P2
2022/04/12 00:01:04;;;;;;;;;;;;;;;11.07;33.46;99992.81;4486680;31;34076;-67
2022/04/12 00:03:35;;;;;;;;;;;;;;;10.84;33.83;99997.16;4490924;31;33487;-68
2022/04/12 00:06:05;;;;;;;;;;;;;;;10.61;35.12;99996.97;4474213;31;31892;-66
2022/04/12 00:08:34;;;;;;;;;;;;;;;10.13;36.08;99999.41;4485728;31;33919;-68
2022/04/12 00:11:03;;;;;;;;;;;;;;;10.30;35.30;99992.91;4485182;31;34092;-67
2022/04/12 00:13:31;;;;;;;;;;;;;;;10.70;34.23;99996.34;4494287;31;33006;-69
2022/04/12 00:16:00;;;;;;;;;;;;;;;10.68;34.08;99998.25;4498078;31;34239;-68
2022/04/12 00:21:16;;;;;;;;;;;;;;;10.69;33.97;99986.59;4485165;31;32988;-67
2022/04/12 00:23:49;;;;;;;;;;;;;;;10.83;33.80;99985.59;4490429;31;32404;-65
2022/04/12 00:26:18;;;;;;;;;;;;;;;10.99;33.26;99987.19;4489219;31;36345;-65
2022/04/12 00:28:47;;;;;;;;;;;;;;;10.39;34.32;99984.25;4488067;31;34318;-67
2022/04/12 00:31:17;;;;;;;;;;;;;;;10.45;34.60;99981.16;4491489;31;34073;-65
2022/04/12 00:33:47;;;;;;;;;;;;;;;10.50;34.53;99972.81;4480626;31;31790;-67
2022/04/12 00:36:17;;;;;;;;;;;;;;;10.68;33.97;99978.66;4486509;31;33381;-65
2022/04/12 00:38:46;;;;;;;;;;;;;;;10.68;34.40;99967.94;4484984;31;33366;-66
2022/04/12 00:41:15;;;;;;;;;;;;;;;10.61;33.70;99970.22;4472145;32;32884;-64
2022/04/12 00:43:43;;;;;;;;;;;;;;;9.91;35.58;99972.44;4483439;31;33363;-65
2022/04/12 00:46:12;;;;;;;;;;;;;;;10.38;35.20;99971.00;4494964;31;33244;-64
2022/04/12 00:48:41;;;;;;;;;;;;;;;10.58;35.31;99972.25;4491631;31;33234;-65
2022/04/12 00:51:10;;;;;;;;;;;;;;;10.52;34.61;99970.87;4488653;31;34590;-65
2022/04/12 00:53:40;;;;;;;;;;;;;;;10.45;35.00;99974.94;4477383;32;34613;-65
2022/04/12 00:56:08;;;;;;;;;;;;;;;10.40;35.03;99966.38;4486643;31;34278;-65
2022/04/12 00:58:36;;;;;;;;;;;;;;;10.57;34.17;99973.22;4495808;31;34503;-66
2022/04/12 01:01:05;;;;;;;;;;;;;;;10.47;34.73;99973.88;4485626;31;34438;-67
2022/04/12 01:03:34;;;;;;;;;;;;;;;10.68;34.20;99978.66;4482642;32;32911;-65
2022/04/12 01:06:03;;;;;;;;;;;;;;;10.64;34.28;99977.19;4470513;32;32651;-65
2022/04/12 01:08:32;;;;;;;;;;;;;;;10.49;34.91;99977.28;4486709;31;34006;-65
2022/04/12 01:11:06;;;;;;;;;;;;;;;10.69;34.84;99967.00;4488985;31;33467;-65
2022/04/12 01:13:36;;;;;;;;;;;;;;;10.69;35.11;99975.03;4489036;31;34485;-65
2022/04/12 01:16:10;;;;;;;;;;;;;;;10.62;35.09;99966.56;4487424;31;33113;-65
2022/04/12 01:18:40;;;;;;;;;;;;;;;10.68;34.95;99968.81;4485471;31;33262;-65
2022/04/12 01:21:10;;;;;;;;;;;;;;;10.78;34.75;99969.00;4484763;31;33190;-64
2022/04/12 01:23:59;;;;;;;;;;;;;;;10.86;34.75;99966.62;4486461;31;32719;-65
2022/04/12 01:26:28;;;;;;;;;;;;;;;10.78;34.53;99963.66;4495056;31;35173;-66
2022/04/12 01:28:57;;;;;;;;;;;;;;;10.53;35.35;99966.38;4493887;31;34574;-65
2022/04/12 01:31:25;;;;;;;;;;;;;;;10.77;35.04;99966.44;4489404;31;35242;-65
2022/04/12 01:33:55;;;;;;;;;;;;;;;10.81;34.93;99958.06;4494598;31;31838;-65
2022/04/12 01:36:24;;;;;;;;;;;;;;;10.83;34.50;99961.50;4496698;31;33048;-65
2022/04/12 01:38:53;;;;;;;;;;;;;;;10.64;35.38;99963.78;4488703;31;33264;-65
2022/04/12 01:41:22;;;;;;;;;;;;;;;10.77;34.75;99959.25;4470029;31;33136;-65
2022/04/12 01:43:52;;;;;;;;;;;;;;;10.71;34.88;99962.37;4484702;31;32632;-64
2022/04/12 01:46:21;;;;;;;;;;;;;;;10.87;34.13;99954.09;4483973;31;33161;-66
2022/04/12 01:48:51;;;;;;;;;;;;;;;10.75;34.17;99958.50;4489849;31;33323;-67
2022/04/12 01:51:21;;;;;;;;;;;;;;;10.62;34.22;99963.03;4474489;31;33008;-64
2022/04/12 01:53:50;;;;;;;;;;;;;;;10.45;34.38;99962.41;4478641;32;32823;-63
2022/04/12 01:56:19;;;;;;;;;;;;;;;10.26;34.74;99959.31;4483755;32;33201;-64
2022/04/12 01:58:47;;;;;;;;;;;;;;;10.10;35.58;99975.56;4483189;32;34264;-64
2022/04/12 02:01:17;;;;;;;;;;;;;;;10.27;35.04;99966.38;4483494;31;34588;-64
2022/04/12 02:03:46;;;;;;;;;;;;;;;10.40;34.53;99969.06;4483458;31;34603;-64
2022/04/12 02:06:14;;;;;;;;;;;;;;;10.40;34.46;99969.06;4492803;31;33383;-63
2022/04/12 02:08:43;;;;;;;;;;;;;;;10.24;34.88;99966.56;4487912;31;34300;-64
2022/04/12 02:11:12;;;;;;;;;;;;;;;10.18;34.83;99961.66;4484337;31;33758;-66
2022/04/12 02:13:42;;;;;;;;;;;;;;;10.10;35.00;99967.53;4491752;31;32013;-65
2022/04/12 02:16:11;;;;;;;;;;;;;;;9.85;36.00;99970.19;4491168;31;33978;-67
2022/04/12 02:18:40;;;;;;;;;;;;;;;9.67;36.36;99965.13;4487914;31;33663;-68
2022/04/12 02:21:08;;;;;;;;;;;;;;;9.51;36.96;99959.97;4494173;31;34647;-68
2022/04/12 02:23:38;;;;;;;;;;;;;;;9.81;36.27;99961.50;4488612;31;33263;-68
2022/04/12 02:26:07;;;;;;;;;;;;;;;9.86;36.13;99963.87;4498319;31;34918;-69
2022/04/12 02:28:36;;;;;;;;;;;;;;;9.87;36.17;99961.09;4486656;31;34620;-68
2022/04/12 02:31:05;;;;;;;;;;;;;;;10.00;35.57;99967.31;4490681;31;34203;-69
2022/04/12 02:33:35;;;;;;;;;;;;;;;9.97;35.76;99966.66;4488859;31;33734;-68
2022/04/12 02:36:05;;;;;;;;;;;;;;;10.04;35.14;99960.78;4483304;31;33755;-67
2022/04/12 02:38:33;;;;;;;;;;;;;;;9.88;35.67;99961.94;4482992;31;34063;-68
2022/04/12 02:41:02;;;;;;;;;;;;;;;9.62;37.08;99966.38;4484574;31;34782;-67
2022/04/12 02:43:31;;;;;;;;;;;;;;;9.84;36.30;99968.47;4481367;32;32050;-67
2022/04/12 02:46:01;;;;;;;;;;;;;;;9.93;35.64;99971.37;4481105;32;32738;-67
2022/04/12 02:48:36;;;;;;;;;;;;;;;9.60;36.58;99971.84;4481721;32;34073;-68
2022/04/12 02:51:11;;;;;;;;;;;;;;;9.67;36.88;99969.63;4484622;31;32941;-68
2022/04/12 02:53:41;;;;;;;;;;;;;;;9.62;36.88;99963.72;4481804;32;34484;-67
2022/04/12 02:56:09;;;;;;;;;;;;;;;9.80;36.35;99967.81;4481913;32;33160;-67
2022/04/12 02:58:39;;;;;;;;;;;;;;;9.91;35.38;99972.44;4481360;32;35535;-67
2022/04/12 03:01:08;;;;;;;;;;;;;;;9.72;36.55;99968.31;4483364;31;33586;-68
2022/04/12 03:03:38;;;;;;;;;;;;;;;9.90;35.34;99970.72;4492884;31;34131;-68
2022/04/12 03:06:09;;;;;;;;;;;;;;;9.75;35.56;99977.97;4498443;31;34341;-67
2022/04/12 03:08:38;;;;;;;;;;;;;;;9.47;36.30;99982.50;4490023;31;35123;-68
2022/04/12 03:11:07;;;;;;;;;;;;;;;9.37;36.29;99978.69;4484472;31;35182;-67
2022/04/12 03:13:38;;;;;;;;;;;;;;;9.31;36.65;99974.66;4483194;31;33843;-68
2022/04/12 03:16:07;;;;;;;;;;;;;;;9.30;37.08;99974.72;4485135;31;33086;-69
2022/04/12 03:18:36;;;;;;;;;;;;;;;9.49;36.86;99967.22;4485329;31;34203;-67
2022/04/12 03:21:05;;;;;;;;;;;;;;;9.55;36.01;99980.16;4481616;31;35172;-67
2022/04/12 03:23:36;;;;;;;;;;;;;;;9.48;36.33;99967.31;4488851;31;34317;-69
2022/04/12 03:26:06;;;;;;;;;;;;;;;9.47;36.88;99971.81;4483238;32;32985;-68
2022/04/12 03:28:34;;;;;;;;;;;;;;;9.68;36.43;99969.50;4484928;31;34493;-66
2022/04/12 03:31:04;;;;;;;;;;;;;;;9.54;36.04;99970.44;4496286;31;35363;-67
2022/04/12 03:33:34;;;;;;;;;;;;;;;9.56;36.10;99971.19;4484737;31;33553;-68
2022/04/12 03:36:03;;;;;;;;;;;;;;;9.26;37.34;99973.22;4477226;31;33916;-68
2022/04/12 03:38:48;;;;;;;;;;;;;;;9.30;37.00;99977.41;4482535;32;34120;-66
2022/04/12 03:41:22;;;;;;;;;;;;;;;9.55;36.37;99974.81;4482732;31;35108;-67
2022/04/12 03:43:52;;;;;;;;;;;;;;;9.59;35.94;99988.81;4481986;32;33637;-68
2022/04/12 03:46:21;;;;;;;;;;;;;;;9.45;36.33;99986.22;4480620;32;33742;-66
2022/04/12 03:48:49;;;;;;;;;;;;;;;9.24;37.20;99994.69;4483150;32;33156;-69
2022/04/12 03:51:21;;;;;;;;;;;;;;;9.41;36.74;99988.25;4481684;31;32842;-66
2022/04/12 03:53:50;;;;;;;;;;;;;;;9.52;36.20;99990.19;4487507;31;34338;-72
2022/04/12 03:56:19;;;;;;;;;;;;;;;9.50;36.50;99986.75;4487375;31;32933;-68
2022/04/12 03:58:48;;;;;;;;;;;;;;;9.37;37.07;99989.38;4485939;31;33238;-67
2022/04/12 04:01:16;;;;;;;;;;;;;;;9.26;38.13;99986.59;4482328;31;34031;-67
2022/04/12 04:03:45;;;;;;;;;;;;;;;9.24;38.36;99989.34;4489604;31;31988;-70
2022/04/12 04:06:15;;;;;;;;;;;;;;;9.59;37.59;99993.31;4494244;31;34093;-67
2022/04/12 04:08:43;;;;;;;;;;;;;;;9.56;37.44;99991.69;4488596;31;32976;-67
2022/04/12 04:11:12;;;;;;;;;;;;;;;9.92;35.80;99998.19;4490534;31;34077;-68
2022/04/12 04:13:41;;;;;;;;;;;;;;;9.94;35.79;99997.12;4483304;31;32186;-69
2022/04/12 04:16:10;;;;;;;;;;;;;;;9.83;36.82;99997.03;4486330;31;33560;-69
2022/04/12 04:18:39;;;;;;;;;;;;;;;10.08;35.37;99998.00;4486063;31;33086;-69
2022/04/12 04:21:08;;;;;;;;;;;;;;;10.03;35.29;99995.66;4492644;31;33007;-68
2022/04/12 04:23:39;;;;;;;;;;;;;;;9.96;35.41;99992.56;4485805;31;33245;-67
2022/04/12 04:26:13;;;;;;;;;;;;;;;9.85;36.84;99991.56;4489516;31;33991;-69
2022/04/12 04:28:44;;;;;;;;;;;;;;;9.80;37.31;99990.06;4491754;31;34244;-67
2022/04/12 04:31:12;;;;;;;;;;;;;;;9.97;36.83;99996.94;4489473;31;35162;-67
2022/04/12 04:33:41;;;;;;;;;;;;;;;9.92;36.87;99998.19;4483162;31;33103;-69
2022/04/12 04:36:09;;;;;;;;;;;;;;;9.85;37.07;99995.09;4487969;31;34228;-69
2022/04/12 04:38:38;;;;;;;;;;;;;;;10.09;36.86;99999.75;4482074;31;33154;-69
2022/04/12 04:41:06;;;;;;;;;;;;;;;10.42;35.05;99993.87;4481840;31;34001;-67
2022/04/12 04:43:35;;;;;;;;;;;;;;;10.48;35.13;99994.31;4481886;31;33316;-69
2022/04/12 04:46:05;;;;;;;;;;;;;;;10.42;35.82;99993.87;4490493;31;33708;-67
2022/04/12 04:48:33;;;;;;;;;;;;;;;10.57;34.76;100002.69;4482525;31;34321;-67
2022/04/12 04:51:01;;;;;;;;;;;;;;;10.59;35.14;100006.06;4485204;31;34126;-68
2022/04/12 04:53:30;;;;;;;;;;;;;;;10.52;35.18;100004.81;4495217;31;33391;-69
2022/04/12 04:55:58;;;;;;;;;;;;;;;10.20;36.29;100015.91;4483020;31;35024;-69
2022/04/12 04:58:26;;;;;;;;;;;;;;;10.24;36.52;100017.38;4482239;32;34190;-69
2022/04/12 05:00:55;;;;;;;;;;;;;;;10.53;35.92;100014.53;4482211;31;33949;-69
2022/04/12 05:03:23;;;;;;;;;;;;;;;10.58;35.65;100018.59;4482431;31;32377;-68
2022/04/12 05:05:51;;;;;;;;;;;;;;;10.45;36.25;100021.28;4498275;31;34123;-68
2022/04/12 05:08:19;;;;;;;;;;;;;;;10.30;36.72;100024.16;4483755;31;34406;-69
2022/04/12 05:10:53;;;;;;;;;;;;;;;10.45;36.58;100034.66;4488412;31;33812;-69
2022/04/12 05:13:22;;;;;;;;;;;;;;;10.93;35.21;100029.50;4492295;31;31335;-69
2022/04/12 05:15:50;;;;;;;;;;;;;;;11.17;35.15;100029.56;4483598;31;33141;-69
2022/04/12 05:18:18;;;;;;;;;;;;;;;11.28;34.89;100028.75;4481847;31;32986;-68
2022/04/12 05:20:47;;;;;;;;;;;;;;;11.28;35.05;100036.81;4482279;31;33932;-69
2022/04/12 05:23:16;;;;;;;;;;;;;;;11.46;34.08;100031.03;4484366;31;33115;-73
2022/04/12 05:25:44;;;;;;;;;;;;;;;11.54;33.88;100036.72;4494138;31;35373;-66
2022/04/12 05:28:12;;;;;;;;;;;;;;;11.75;33.79;100034.25;4490729;31;34311;-68
2022/04/12 05:30:41;;;;;;;;;;;;;;;12.05;33.43;100037.31;4482524;31;34963;-71
2022/04/12 05:33:10;;;;;;;;;;;;;;;12.43;32.94;100043.41;4485504;31;33113;-67
2022/04/12 05:35:39;;;;;;;;;;;;;;;12.63;33.10;100048.06;4486652;31;35167;-67
2022/04/12 05:38:07;;;;;;;;;;;;;;;12.81;32.87;100040.41;4490734;31;34448;-69
2022/04/12 05:40:35;;;;;;;;;;;;;;;13.14;31.91;100044.91;4487636;31;33494;-76
2022/04/12 05:43:04;;;;;;;;;;;;;;;13.14;31.90;100057.50;4486730;31;32407;-67
2022/04/12 05:45:32;;;;;;;;;;;;;;;13.17;32.24;100055.41;4495701;31;33916;-68
2022/04/12 05:48:01;;;;;;;;;;;;;;;13.63;31.53;100043.59;4492046;31;34160;-67
2022/04/12 05:50:30;;;;;;;;;;;;;;;13.41;31.71;100038.28;4486083;31;34123;-67
2022/04/12 05:52:58;;;;;;;;;;;;;;;12.87;32.78;100052.47;4484459;31;33964;-67
2022/04/12 05:55:30;;;;;;;;;;;;;;;12.88;33.01;100057.75;4486367;31;34140;-67
2022/04/12 05:58:03;;;;;;;;;;;;;;;12.85;32.99;100049.91;4495890;31;34610;-67
2022/04/12 06:00:40;;;;;;;;;;;;;;;14.14;31.57;100056.38;4494049;31;32799;-67
2022/04/12 06:03:24;;;;;;;;;;;;;;;13.98;31.15;100064.03;4496296;31;32807;-67
2022/04/12 06:06:01;;;;;;;;;;;;;;;12.82;33.26;100058.22;4499006;31;34020;-68
2022/04/12 06:08:45;;;;;;;;;;;;;;;12.80;34.10;100058.31;4488333;31;33952;-67
2022/04/12 06:11:27;;;;;;;;;;;;;;;12.44;34.66;100062.06;4489012;31;32794;-69
2022/04/12 06:14:10;;;;;;;;;;;;;;;12.33;34.89;100065.59;4491829;31;31902;-67
2022/04/12 06:16:45;;;;;;;;;;;;;;;10.60;38.71;100069.38;4492134;31;33699;-68
2022/04/12 06:19:18;;;;;;;;;;;;;;;11.94;35.92;100063.25;4491523;31;32803;-67
2022/04/12 06:21:55;;;;;;;;;;;;;;;10.67;37.50;100074.19;4497662;31;32864;-67
2022/04/12 06:24:38;;;;;;;;;;;;;;;11.71;37.52;100076.53;4497473;31;32107;-69
2022/04/12 06:27:30;;;;;;;;;;;;;;;11.75;35.95;100082.50;4485978;31;32814;-67
2022/04/12 06:30:23;;;;;;;;;;;;;;;11.56;35.69;100077.69;4498893;31;32734;-67
2022/04/12 06:32:59;;;;;;;;;;;;;;;10.72;37.07;100076.53;4494913;31;34214;-70
2022/04/12 06:35:31;;;;;;;;;;;;;;;11.10;37.62;100083.66;4499193;31;32341;-66
2022/04/12 06:38:11;;;;;;;;;;;;;;;11.19;37.53;100085.69;4482842;32;33547;-68
2022/04/12 06:40:44;;;;;;;;;;;;;;;11.33;36.89;100082.00;4497307;31;35673;-67
2022/04/12 06:43:19;;;;;;;;;;;;;;;11.67;37.78;100083.09;4493249;31;34427;-67
2022/04/12 06:45:54;;;;;;;;;;;;;;;11.43;35.80;100083.06;4500989;31;32254;-67
2022/04/12 06:48:35;;;;;;;;;;;;;;;10.78;37.44;100085.94;4494355;31;34224;-67
2022/04/12 06:51:09;;;;;;;;;;;;;;;11.47;36.96;100086.38;4491231;31;33066;-68
2022/04/12 06:53:42;;;;;;;;;;;;;;;11.81;34.77;100077.56;4488717;31;34261;-66
2022/04/12 06:56:22;;;;;;;;;;;;;;;12.08;34.21;100074.66;4485302;32;33109;-67
2022/04/12 06:59:01;;;;;;;;;;;;;;;12.12;34.28;100077.97;4484569;31;34482;-67
2022/04/12 07:01:35;;;;;;;;;;;;;;;12.26;33.35;100075.09;4485758;31;33084;-66
2022/04/12 07:04:06;;;;;;;;;;;;;;;12.51;33.95;100073.19;4489802;31;33142;-67
2022/04/12 07:06:40;;;;;;;;;;;;;;;12.03;33.71;100078.66;4488559;31;32079;-68
2022/04/12 07:09:18;;;;;;;;;;;;;;;12.06;33.05;100078.41;4484357;31;35305;-66
2022/04/12 07:11:55;;;;;;;;;;;;;;;12.14;34.08;100081.41;4469814;31;34309;-67
2022/04/12 07:14:32;;;;;;;;;;;;;;;11.85;33.23;100079.06;4487954;31;32932;-67
2022/04/12 07:17:07;;;;;;;;;;;;;;;12.12;32.63;100086.00;4483084;32;33580;-67
2022/04/12 07:19:44;;;;;;;;;;;;;;;12.51;32.60;100082.09;4485739;31;33027;-67
2022/04/12 07:22:23;;;;;;;;;;;;;;;12.51;32.04;100090.16;4485253;31;33155;-67
2022/04/12 07:24:53;;;;;;;;;;;;;;;12.04;32.53;100081.25;4484009;31;33549;-67
2022/04/12 07:27:38;;;;;;;;;;;;;;;11.44;32.95;100092.81;4494809;31;32122;-68
2022/04/12 07:30:18;;;;;;;;;;;;;;;12.15;32.07;100092.97;4495542;31;32937;-69
2022/04/12 07:33:17;;;;;;;;;;;;;;;11.39;34.90;100092.28;4498252;31;34652;-68
2022/04/12 07:35:46;;;;;;;;;;;;;;;11.89;34.16;100091.28;4483841;31;34790;-66
2022/04/12 07:38:14;;;;;;;;;;;;;;;11.95;33.77;100095.34;4486465;31;32305;-69
2022/04/12 07:40:42;;;;;;;;;;;;;;;12.29;33.77;100092.78;4489746;31;32947;-67
2022/04/12 07:43:13;;;;;;;;;;;;;;;12.02;33.49;100096.59;4487157;31;35175;-69
2022/04/12 07:45:41;;;;;;;;;;;;;;;11.98;33.85;100088.91;4422317;32;28902;-67
2022/04/12 07:48:10;;;;;;;;;;;;;;;12.40;33.45;100095.50;4453891;32;33314;-67
2022/04/12 07:50:39;;;;;;;;;;;;;;;12.46;33.94;100100.41;4453866;32;32755;-68
2022/04/12 07:53:11;;;;;;;;;;;;;;;12.54;33.51;100097.97;4469362;32;32820;-67
2022/04/12 07:55:40;;;;;;;;;;;;;;;12.55;31.66;100094.31;4461889;32;32771;-66
2022/04/12 07:58:16;;;;;;;;;;;;;;;12.61;32.78;100101.03;4454257;32;34487;-71
2022/04/12 08:00:51;;;;;;;;;;;;;;;12.94;32.25;100102.06;4455497;32;32790;-67
2022/04/12 08:03:24;;;;;;;;;;;;;;;12.92;32.63;100104.87;4462963;32;35352;-69
2022/04/12 08:05:59;;;;;;;;;;;;;;;13.22;31.37;100106.94;4464751;32;33809;-69
2022/04/12 08:08:34;;;;;;;;;;;;;;;12.87;31.56;100103.50;4469719;32;33444;-66
2022/04/12 08:11:05;;;;;;;;;;;;;;;12.90;31.37;100111.34;4452799;32;34414;-65
2022/04/12 08:13:35;;;;;;;;;;;;;;;13.13;31.23;100099.62;4452856;32;33266;-68
2022/04/12 08:16:11;;;;;;;;;;;;;;;13.92;29.78;100113.81;4466903;32;33113;-67
2022/04/12 08:18:53;;;;;;;;;;;;;;;13.92;30.24;100111.13;4469151;32;34709;-68
2022/04/12 08:21:33;;;;;;;;;;;;;;;13.22;31.17;100109.62;4463871;32;35142;-68
2022/04/12 08:24:10;;;;;;;;;;;;;;;13.22;30.36;100109.62;4453592;32;33946;-68
2022/04/12 08:26:43;;;;;;;;;;;;;;;13.80;30.72;100120.22;4459077;32;34764;-68
2022/04/12 08:29:18;;;;;;;;;;;;;;;13.73;30.28;100122.56;4459237;32;32422;-71
2022/04/12 08:31:55;;;;;;;;;;;;;;;13.85;30.37;100112.63;4456087;32;32777;-69
2022/04/12 08:34:29;;;;;;;;;;;;;;;14.55;30.02;100113.97;4453906;32;33097;-66
2022/04/12 08:37:11;;;;;;;;;;;;;;;14.45;29.90;100113.84;4454155;32;33121;-67
2022/04/12 08:39:52;;;;;;;;;;;;;;;15.00;29.11;100112.81;4456596;32;33373;-67
2022/04/12 08:42:28;;;;;;;;;;;;;;;14.40;29.52;100110.69;4454250;32;36116;-67
2022/04/12 08:44:58;;;;;;;;;;;;;;;15.07;29.13;100114.81;4474912;31;35523;-68
2022/04/12 08:47:37;;;;;;;;;;;;;;;14.90;28.62;100119.00;4491265;31;35039;-67
2022/04/12 08:50:13;;;;;;;;;;;;;;;14.48;29.02;100115.44;4490931;31;32616;-68
2022/04/12 08:52:55;;;;;;;;;;;;;;;15.14;28.21;100120.53;4499472;31;32953;-66
2022/04/12 08:55:36;;;;;;;;;;;;;;;15.61;27.38;100126.25;4497036;31;34608;-67
2022/04/12 08:58:13;;;;;;;;;;;;;;;15.89;27.38;100111.16;4479353;31;33972;-67
2022/04/12 09:00:49;;;;;;;;;;;;;;;15.30;28.00;100111.94;4475780;31;32827;-67
2022/04/12 09:03:25;;;;;;;;;;;;;;;16.14;27.43;100111.59;4499072;31;32672;-67
2022/04/12 09:05:59;;;;;;;;;;;;;;;15.43;27.45;100106.31;4483172;32;35512;-66
2022/04/12 09:08:33;;;;;;;;;;;;;;;15.79;27.91;100104.87;4474486;32;33493;-69
2022/04/12 09:11:12;;;;;;;;;;;;;;;16.39;27.64;100097.50;4486426;31;33144;-67
2022/04/12 09:14:03;;;;;;;;;;;;;;;16.30;26.70;100096.50;4496781;31;35021;-67
2022/04/12 09:16:49;;;;;;;;;;;;;;;16.66;24.96;100099.47;4490771;31;33411;-66
2022/04/12 09:19:45;;;;;;;;;;;;;;;16.76;24.82;100099.50;4497110;31;34057;-67
2022/04/12 09:22:25;;;;;;;;;;;;;;;16.79;24.75;100090.22;4490693;31;33297;-67
2022/04/12 09:25:01;;;;;;;;;;;;;;;16.92;26.16;100094.31;4476509;31;33397;-67
2022/04/12 09:27:40;;;;;;;;;;;;;;;17.28;25.26;100090.91;4489000;31;35257;-72
2022/04/12 09:30:18;;;;;;;;;;;;;;;17.63;24.95;100091.00;4497976;31;33005;-67
2022/04/12 09:32:52;;;;;;;;;;;;;;;17.81;24.73;100084.78;4493074;31;33192;-67
2022/04/12 09:35:23;;;;;;;;;;;;;;;17.81;24.75;100082.09;4484734;31;35121;-66
2022/04/12 09:37:54;;;;;;;;;;;;;;;17.73;23.87;100074.72;4471029;32;33997;-71
2022/04/12 09:40:25;;;;;;;;;;;;;;;17.47;24.04;100077.28;4468960;32;33265;-69
2022/04/12 09:43:05;;;;;;;;;;;;;;;17.55;24.46;100080.06;4488012;31;32176;-68
2022/04/12 09:45:46;;;;;;;;;;;;;;;17.90;23.69;100075.75;4484150;31;32754;-71
2022/04/12 09:48:31;;;;;;;;;;;;;;;17.14;23.67;100081.41;4486880;31;34469;-72
2022/04/12 09:51:19;;;;;;;;;;;;;;;18.10;23.07;100074.59;4472931;32;32571;-70
2022/04/12 09:53:51;;;;;;;;;;;;;;;17.92;23.23;100066.47;4494492;31;33315;-68
2022/04/12 09:56:29;;;;;;;;;;;;;;;17.26;24.27;100065.84;4485559;31;33213;-68
2022/04/12 09:59:08;;;;;;;;;;;;;;;18.42;23.43;100064.19;4490969;31;34491;-71
2022/04/12 10:01:44;;;;;;;;;;;;;;;18.65;22.71;100069.94;4483673;31;32761;-71
2022/04/12 10:04:21;;;;;;;;;;;;;;;19.20;22.46;100065.06;4488227;31;33231;-68
2022/04/12 10:06:59;;;;;;;;;;;;;;;19.26;23.09;100059.00;4484622;31;34347;-69
2022/04/12 10:09:39;;;;;;;;;;;;;;;18.82;22.69;100059.09;4474226;32;33234;-68
2022/04/12 10:12:21;;;;;;;;;;;;;;;19.18;22.31;100053.53;4471121;32;34222;-70
2022/04/12 10:15:04;;;;;;;;;;;;;;;19.43;23.16;100051.75;4483915;31;32244;-68
2022/04/12 10:17:37;;;;;;;;;;;;;;;20.06;21.79;100033.22;4483939;31;34357;-70
2022/04/12 10:20:09;;;;;;;;;;;;;;;20.12;21.20;100043.44;4484699;31;33194;-68
2022/04/12 10:22:43;;;;;;;;;;;;;;;19.58;22.61;100054.66;4491893;31;32899;-69
2022/04/12 10:25:22;;;;;;;;;;;;;;;19.60;22.30;100036.34;4474847;31;31541;-69
2022/04/12 10:28:00;;;;;;;;;;;;;;;19.24;21.60;100044.72;4472543;31;34201;-70
2022/04/12 10:30:35;;;;;;;;;;;;;;;19.18;22.44;100033.69;4474038;31;32652;-68
2022/04/12 10:33:08;;;;;;;;;;;;;;;20.20;20.81;100033.41;4492421;31;33747;-67
2022/04/12 10:35:48;;;;;;;;;;;;;;;19.95;21.69;100029.00;4485557;31;32219;-68
2022/04/12 10:38:25;;;;;;;;;;;;;;;19.54;21.82;100020.72;4491919;31;32948;-69
2022/04/12 10:41:01;;;;;;;;;;;;;;;18.96;22.84;100030.53;4492538;31;33925;-68
2022/04/12 10:43:45;;;;;;;;;;;;;;;18.79;22.63;100024.16;4483602;31;33899;-68
2022/04/12 10:46:51;;;;;;;;;;;;;;;18.79;22.62;100021.44;4470693;31;32128;-69
2022/04/12 10:49:22;;;;;;;;;;;;;;;19.94;21.55;100017.28;4490451;31;33106;-68
2022/04/12 10:52:03;;;;;;;;;;;;;;;19.89;21.40;100019.63;4488832;31;34236;-69
2022/04/12 10:54:38;;;;;;;;;;;;;;;20.34;22.00;100009.28;4501518;31;34008;-68
2022/04/12 10:57:24;;;;;;;;;;;;;;;19.19;22.92;100017.22;4492839;31;32148;-68
2022/04/12 11:00:11;;;;;;;;;;;;;;;19.41;21.92;100004.06;4491575;31;33399;-68
2022/04/12 11:02:59;;;;;;;;;;;;;;;20.43;21.25;100005.53;4491674;31;34042;-69
2022/04/12 11:05:44;;;;;;;;;;;;;;;19.80;22.17;100006.22;4484002;31;33085;-69
2022/04/12 11:08:16;;;;;;;;;;;;;;;19.66;22.07;100007.72;4494681;31;32508;-70
2022/04/12 11:10:59;;;;;;;;;;;;;;;20.70;21.27;99998.88;4487506;31;34172;-70
2022/04/12 11:13:31;;;;;;;;;;;;;;;20.43;21.62;99992.78;4485979;31;33305;-68
2022/04/12 11:16:19;;;;;;;;;;;;;;;19.35;22.43;99989.28;4488106;31;33133;-70
2022/04/12 11:18:54;;;;;;;;;;;;;;;19.79;22.25;99989.06;4490402;31;32143;-67
2022/04/12 11:21:28;;;;;;;;;;;;;;;19.14;22.96;99988.91;4483355;32;34313;-71
2022/04/12 11:24:02;;;;;;;;;;;;;;;19.31;22.36;99983.34;4486991;31;33247;-68
2022/04/12 11:26:45;;;;;;;;;;;;;;;20.00;22.00;99980.44;4474886;32;32491;-68
2022/04/12 11:29:23;;;;;;;;;;;;;;;20.15;22.70;99976.00;4485356;32;32449;-67
2022/04/12 11:32:02;;;;;;;;;;;;;;;19.97;22.02;99978.06;4483989;31;34331;-68
2022/04/12 11:34:40;;;;;;;;;;;;;;;20.36;21.59;99971.91;4488587;31;34947;-70
2022/04/12 11:37:18;;;;;;;;;;;;;;;21.00;22.00;99963.78;4488267;31;33238;-69
2022/04/12 11:39:58;;;;;;;;;;;;;;;20.52;21.78;99968.34;4491046;31;32231;-68
2022/04/12 11:42:43;;;;;;;;;;;;;;;20.35;21.53;99968.34;4496371;31;34184;-67
2022/04/12 11:45:35;;;;;;;;;;;;;;;20.15;21.76;99967.84;4471617;32;31626;-67
2022/04/12 11:48:16;;;;;;;;;;;;;;;19.90;21.94;99969.75;4486233;31;33722;-74
2022/04/12 11:50:55;;;;;;;;;;;;;;;20.51;22.48;99961.16;4485789;32;32207;-68
2022/04/12 11:53:34;;;;;;;;;;;;;;;20.90;20.73;99969.44;4495365;31;34983;-68
2022/04/12 11:56:10;;;;;;;;;;;;;;;20.97;21.00;99962.25;4485715;32;33394;-73
2022/04/12 11:58:47;;;;;;;;;;;;;;;21.20;21.49;99965.03;4475988;31;35184;-67
2022/04/12 12:01:29;;;;;;;;;;;;;;;19.98;21.85;99964.31;4501449;31;32190;-68
2022/04/12 12:04:09;;;;;;;;;;;;;;;19.30;22.19;99957.25;4490291;31;33256;-67
2022/04/12 12:07:00;;;;;;;;;;;;;;;18.68;23.47;99962.03;4471018;32;35725;-67
2022/04/12 12:09:30;;;;;;;;;;;;;;;19.35;23.23;99961.31;4470280;32;33685;-67
2022/04/12 12:12:06;;;;;;;;;;;;;;;19.40;22.95;99959.81;4485573;31;32108;-67
2022/04/12 12:14:41;;;;;;;;;;;;;;;20.57;21.85;99958.62;4486008;31;34378;-66
2022/04/12 12:17:18;;;;;;;;;;;;;;;18.41;23.45;99968.50;4490006;31;35426;-76
2022/04/12 12:19:49;;;;;;;;;;;;;;;18.91;22.98;99964.19;4485725;31;32989;-69
2022/04/12 12:22:36;;;;;;;;;;;;;;;19.64;22.97;99956.28;4485116;32;32885;-68
2022/04/12 12:25:07;;;;;;;;;;;;;;;20.04;21.98;99959.22;4484916;32;33957;-68
2022/04/12 12:27:41;;;;;;;;;;;;;;;19.93;22.05;99952.25;4484726;32;35267;-68
2022/04/12 12:30:25;;;;;;;;;;;;;;;19.58;22.36;99950.66;4482954;31;33373;-70
2022/04/12 12:33:08;;;;;;;;;;;;;;;20.51;21.81;99950.28;4488299;31;33385;-68
2022/04/12 12:35:44;;;;;;;;;;;;;;;20.21;22.10;99942.72;4487846;31;33981;-69
2022/04/12 12:38:17;;;;;;;;;;;;;;;20.00;22.08;99950.56;4495415;31;34449;-67
2022/04/12 12:41:00;;;;;;;;;;;;;;;19.60;23.05;99946.75;4499146;31;32831;-68
2022/04/12 12:43:39;;;;;;;;;;;;;;;19.28;23.53;99944.84;4482400;31;32178;-71
2022/04/12 12:46:13;;;;;;;;;;;;;;;19.38;23.41;99933.84;4491093;31;32961;-68
2022/04/12 12:48:45;;;;;;;;;;;;;;;20.04;22.65;99929.34;4494238;31;34449;-65
2022/04/12 12:51:20;;;;;;;;;;;;;;;20.06;22.54;99938.13;4487802;31;33156;-66
2022/04/12 12:54:00;;;;;;;;;;;;;;;19.41;22.07;99928.06;4492874;31;32476;-68
2022/04/12 12:56:32;;;;;;;;;;;;;;;19.58;22.62;99927.06;4499461;31;33924;-67
2022/04/12 12:59:15;;;;;;;;;;;;;;;18.97;22.71;99923.75;4497730;31;34180;-67
2022/04/12 13:01:48;;;;;;;;;;;;;;;18.76;23.82;99921.44;4488499;31;34732;-67
2022/04/12 13:04:19;;;;;;;;;;;;;;;18.96;23.16;99921.19;4483272;31;33355;-66
2022/04/12 13:07:17;;;;;;;;;;;;;;;18.48;23.54;99923.47;4485414;31;32832;-66
2022/04/12 13:09:51;;;;;;;;;;;;;;;18.28;23.85;99917.44;4487504;31;32978;-67
2022/04/12 13:12:24;;;;;;;;;;;;;;;18.07;24.17;99931.38;4497415;31;33058;-66
2022/04/12 13:14:55;;;;;;;;;;;;;;;18.23;24.70;99925.19;4499837;31;34083;-68
2022/04/12 13:17:27;;;;;;;;;;;;;;;18.08;24.11;99930.34;4500042;31;35213;-66
2022/04/12 13:19:57;;;;;;;;;;;;;;;18.46;23.37;99917.37;4489166;31;34015;-68